Terminal Aerodrome Forecast
Issued by NWS

Home | Current Version | Previous Version | Text Only | Print | Product List | Glossary On
Versions: 1 2 3 4 5 6 7 8 9 10 11 12 13 14 15 16 17 18
000
FTUS46 KSEW 291700
TAFBLI
TAF
KBLI 291734Z 2918/3018 02005KT P6SM OVC080
     FM292100 01002KT P6SM BKN250
     FM301200 00000KT 4SM BR SCT250
     FM301700 00000KT P6SM BKN250=

USA.gov is the U.S. government's official web portal to all federal, state and local government web resources and services.